createdAt,value
2023-04-18T00:01:02.145Z,47.56
2023-04-18T00:03:28.673Z,47.82
2023-04-18T00:05:55.228Z,47.42
2023-04-18T00:08:21.547Z,47.52
2023-04-18T00:10:47.948Z,47.41
2023-04-18T00:13:14.341Z,47.77
2023-04-18T00:15:40.676Z,47.42
2023-04-18T00:18:07.017Z,47.68
2023-04-18T00:20:33.446Z,47.58
2023-04-18T00:22:59.807Z,47.50
2023-04-18T00:25:26.131Z,47.55
2023-04-18T00:27:52.742Z,47.48
2023-04-18T00:30:19.088Z,47.79
2023-04-18T00:32:45.465Z,47.55
2023-04-18T00:35:11.892Z,47.51
2023-04-18T00:37:38.219Z,47.70
2023-04-18T00:40:04.634Z,47.70
2023-04-18T00:42:31.032Z,47.76
2023-04-18T00:44:57.377Z,47.85
2023-04-18T00:47:23.811Z,47.80
2023-04-18T00:49:50.777Z,48.25
2023-04-18T00:52:17.134Z,47.85
2023-04-18T00:54:43.469Z,47.92
2023-04-18T00:57:10.522Z,48.10
2023-04-18T00:59:37.149Z,47.73
2023-04-18T01:02:03.601Z,47.97
2023-04-18T01:04:30.368Z,47.83
2023-04-18T01:06:56.757Z,48.09
2023-04-18T01:09:23.080Z,48.18
2023-04-18T01:11:51.641Z,47.83
2023-04-18T01:14:17.968Z,47.89
2023-04-18T01:16:44.294Z,47.84
2023-04-18T01:19:10.976Z,47.90
2023-04-18T01:21:37.596Z,48.00
2023-04-18T01:24:04.342Z,48.01
2023-04-18T01:26:30.749Z,47.87
2023-04-18T01:28:57.125Z,48.08
2023-04-18T01:31:23.447Z,48.05
2023-04-18T01:33:49.932Z,48.24
2023-04-18T01:36:16.464Z,47.95
2023-04-18T01:38:42.799Z,48.11
2023-04-18T01:41:09.175Z,47.99
2023-04-18T01:43:35.492Z,47.96
2023-04-18T01:46:03.222Z,48.18
2023-04-18T01:48:29.576Z,48.11
2023-04-18T01:50:55.936Z,47.85
2023-04-18T01:53:22.257Z,48.17
2023-04-18T01:55:48.767Z,48.15
2023-04-18T01:58:15.164Z,47.96
2023-04-18T02:00:41.576Z,48.06
2023-04-18T02:03:08.096Z,48.35
2023-04-18T02:05:34.546Z,48.47
2023-04-18T02:08:00.872Z,48.14
2023-04-18T02:10:27.249Z,48.11
2023-04-18T02:12:53.610Z,47.83
2023-04-18T02:15:19.943Z,47.65
2023-04-18T02:17:46.361Z,47.27
2023-04-18T02:20:12.702Z,47.03
2023-04-18T02:22:39.041Z,46.93
2023-04-18T02:25:05.491Z,46.65
2023-04-18T02:27:31.827Z,46.71
2023-04-18T02:29:58.166Z,46.54
2023-04-18T02:32:24.772Z,46.25
2023-04-18T02:34:51.184Z,46.05
2023-04-18T02:37:17.523Z,45.66
2023-04-18T02:39:43.892Z,45.60
2023-04-18T02:42:10.211Z,45.58
2023-04-18T02:44:36.536Z,45.10
2023-04-18T02:47:02.918Z,45.09
2023-04-18T02:49:29.517Z,44.88
2023-04-18T02:51:55.917Z,44.63
2023-04-18T02:54:22.380Z,44.50
2023-04-18T02:56:54.703Z,44.20
2023-04-18T02:59:24.933Z,44.33
2023-04-18T03:02:06.222Z,43.82
2023-04-18T03:04:34.393Z,43.93
2023-04-18T03:07:03.528Z,43.58
2023-04-18T03:09:33.723Z,43.69
2023-04-18T03:12:04.842Z,43.57
2023-04-18T03:14:31.976Z,43.38
2023-04-18T03:16:59.220Z,43.12
2023-04-18T03:19:30.244Z,42.94
2023-04-18T03:21:59.801Z,42.64
2023-04-18T03:24:27.007Z,42.55
2023-04-18T03:26:57.299Z,42.50
2023-04-18T03:29:25.365Z,42.29
2023-04-18T03:31:51.847Z,42.26
2023-04-18T03:34:18.260Z,42.07
2023-04-18T03:36:46.597Z,41.96
2023-04-18T03:39:14.366Z,42.13
2023-04-18T03:41:41.152Z,42.03
2023-04-18T03:44:07.848Z,41.83
2023-04-18T03:46:36.543Z,41.64
2023-04-18T03:49:04.284Z,41.59
2023-04-18T03:51:30.674Z,41.41
2023-04-18T03:53:57.143Z,41.34
2023-04-18T03:56:23.669Z,41.28
2023-04-18T03:58:52.059Z,40.96
2023-04-18T04:01:20.250Z,40.94
2023-04-18T04:03:46.858Z,41.00
2023-04-18T04:06:13.755Z,40.86
2023-04-18T04:08:40.216Z,40.97
2023-04-18T04:11:06.863Z,40.59
2023-04-18T04:13:33.334Z,40.50
2023-04-18T04:15:59.874Z,40.23
2023-04-18T04:18:26.510Z,40.16
2023-04-18T04:20:53.138Z,39.95
2023-04-18T04:23:31.865Z,39.72
2023-04-18T04:25:58.520Z,39.80
2023-04-18T04:28:38.478Z,39.36
2023-04-18T04:31:06.205Z,39.28
2023-04-18T04:33:32.680Z,39.24
2023-04-18T04:36:01.881Z,38.95
2023-04-18T04:38:31.382Z,38.63
2023-04-18T04:40:58.453Z,38.30
2023-04-18T04:43:25.334Z,38.63
2023-04-18T04:45:52.233Z,38.52
2023-04-18T04:48:25.544Z,38.74
2023-04-18T04:50:53.362Z,38.83
2023-04-18T04:53:19.869Z,38.77
2023-04-18T04:55:46.559Z,38.98
2023-04-18T04:58:13.398Z,39.19
2023-04-18T05:01:03.124Z,39.75
2023-04-18T05:03:31.604Z,40.05
2023-04-18T05:05:58.272Z,38.39
2023-04-18T05:08:24.714Z,37.85
2023-04-18T05:10:51.344Z,37.89
2023-04-18T05:13:17.845Z,38.15
2023-04-18T05:15:44.341Z,38.40
2023-04-18T05:18:10.856Z,39.02
2023-04-18T05:20:37.264Z,39.54
2023-04-18T05:23:03.694Z,39.51
2023-04-18T05:25:30.186Z,39.42
2023-04-18T05:27:56.694Z,39.28
2023-04-18T05:30:23.115Z,39.63
2023-04-18T05:32:49.695Z,39.12
2023-04-18T05:35:16.172Z,39.02
2023-04-18T05:37:42.593Z,38.91
2023-04-18T05:40:09.102Z,38.53
2023-04-18T05:42:35.611Z,38.22
2023-04-18T05:45:02.017Z,38.25
2023-04-18T05:47:28.652Z,38.34
2023-04-18T05:49:55.133Z,38.83
2023-04-18T05:52:21.559Z,39.13
2023-04-18T05:54:47.941Z,39.62
2023-04-18T05:57:14.327Z,39.77
2023-04-18T05:59:40.748Z,40.25
2023-04-18T06:02:07.214Z,40.60
2023-04-18T06:04:33.696Z,40.86
2023-04-18T06:07:00.130Z,40.75
2023-04-18T06:09:26.544Z,40.97
2023-04-18T06:11:52.932Z,40.97
2023-04-18T06:14:19.324Z,41.09
2023-04-18T06:16:45.707Z,40.91
2023-04-18T06:19:12.038Z,40.76
2023-04-18T06:21:38.441Z,40.46
2023-04-18T06:24:04.838Z,40.39
2023-04-18T06:26:31.173Z,40.30
2023-04-18T06:28:57.606Z,40.36
2023-04-18T06:31:24.069Z,39.79
2023-04-18T06:33:50.496Z,40.00
2023-04-18T06:36:17.036Z,39.75
2023-04-18T06:38:43.447Z,39.83
2023-04-18T06:41:09.798Z,39.82
2023-04-18T06:43:36.150Z,39.92
2023-04-18T06:46:02.554Z,39.98
2023-04-18T06:48:28.916Z,39.23
2023-04-18T06:50:55.271Z,39.32
2023-04-18T06:53:21.654Z,39.43
2023-04-18T06:55:48.028Z,39.37
2023-04-18T06:58:14.366Z,38.99
2023-04-18T07:00:40.772Z,39.32
2023-04-18T07:03:08.141Z,39.19
2023-04-18T07:05:36.706Z,39.03
2023-04-18T07:08:03.122Z,39.03
2023-04-18T07:10:29.512Z,38.00
2023-04-18T07:12:55.878Z,38.58
2023-04-18T07:15:22.304Z,38.71
2023-04-18T07:17:48.704Z,38.62
2023-04-18T07:20:15.067Z,38.51
2023-04-18T07:22:41.467Z,38.23
2023-04-18T07:25:07.852Z,38.51
2023-04-18T07:27:34.223Z,38.31
2023-04-18T07:30:00.657Z,38.20
2023-04-18T07:32:27.040Z,37.95
2023-04-18T07:34:53.402Z,38.02
2023-04-18T07:37:19.822Z,37.98
2023-04-18T07:39:46.714Z,37.79
2023-04-18T07:42:13.070Z,37.72
2023-04-18T07:44:39.482Z,37.56
2023-04-18T07:47:05.905Z,37.55
2023-04-18T07:49:32.232Z,37.61
2023-04-18T07:51:58.678Z,37.75
2023-04-18T07:54:25.013Z,37.69
2023-04-18T07:56:51.375Z,37.32
2023-04-18T07:59:17.771Z,37.12
2023-04-18T08:01:44.144Z,37.13
2023-04-18T08:04:10.696Z,37.09
2023-04-18T08:06:37.200Z,37.12
2023-04-18T08:09:03.584Z,37.15
2023-04-18T08:11:29.968Z,36.90
2023-04-18T08:13:56.401Z,36.50
2023-04-18T08:16:22.886Z,36.57
2023-04-18T08:18:49.290Z,36.34
2023-04-18T08:21:15.713Z,36.36
2023-04-18T08:23:42.076Z,36.21
2023-04-18T08:26:08.392Z,36.07
2023-04-18T08:28:34.893Z,36.00
2023-04-18T08:31:01.240Z,35.96
2023-04-18T08:33:27.613Z,36.03
2023-04-18T08:35:54.125Z,35.97
2023-04-18T08:38:20.494Z,35.77
2023-04-18T08:40:46.839Z,35.96
2023-04-18T08:43:13.240Z,36.15
2023-04-18T08:45:39.639Z,36.05
2023-04-18T08:48:06.064Z,36.06
2023-04-18T08:50:32.533Z,36.00
2023-04-18T08:52:58.951Z,35.59
2023-04-18T08:55:25.362Z,35.93
2023-04-18T08:57:51.797Z,35.87
2023-04-18T09:00:18.148Z,35.59
2023-04-18T09:02:44.660Z,35.24
2023-04-18T09:05:11.508Z,35.13
2023-04-18T09:07:37.903Z,35.28
2023-04-18T09:10:04.278Z,35.11
2023-04-18T09:12:30.683Z,34.93
2023-04-18T09:14:57.041Z,34.65
2023-04-18T09:17:23.411Z,34.64
2023-04-18T09:19:49.848Z,34.65
2023-04-18T09:22:16.223Z,34.37
2023-04-18T09:24:42.597Z,34.44
2023-04-18T09:27:09.000Z,33.89
2023-04-18T09:29:35.375Z,34.19
2023-04-18T09:32:01.804Z,33.96
2023-04-18T09:34:28.320Z,34.15
2023-04-18T09:36:54.753Z,34.11
2023-04-18T09:39:21.130Z,33.70
2023-04-18T09:41:47.542Z,33.64
2023-04-18T09:44:15.385Z,33.92
2023-04-18T09:46:42.950Z,34.07
2023-04-18T09:49:11.183Z,33.93
2023-04-18T09:51:37.712Z,33.87
2023-04-18T09:54:04.076Z,33.90
2023-04-18T09:56:30.496Z,33.89
2023-04-18T09:58:56.865Z,34.03
2023-04-18T10:01:23.350Z,34.01
2023-04-18T10:03:49.915Z,33.89
2023-04-18T10:06:16.389Z,33.28
2023-04-18T10:08:42.802Z,33.14
2023-04-18T10:11:09.213Z,33.46
2023-04-18T10:13:35.673Z,33.29
2023-04-18T10:16:02.090Z,32.96
2023-04-18T10:18:28.549Z,32.69
2023-04-18T10:20:54.918Z,32.60
2023-04-18T10:23:21.290Z,32.10
2023-04-18T10:25:47.716Z,32.02
2023-04-18T10:28:14.079Z,31.44
2023-04-18T10:30:40.462Z,31.46
2023-04-18T10:33:10.575Z,31.01
2023-04-18T10:35:44.661Z,31.42
2023-04-18T10:38:11.080Z,31.16
2023-04-18T10:40:37.503Z,30.78
2023-04-18T10:43:03.851Z,30.15
2023-04-18T10:45:30.274Z,30.03
2023-04-18T10:47:57.685Z,30.01
2023-04-18T10:50:24.184Z,29.76
2023-04-18T10:52:50.588Z,29.73
2023-04-18T10:55:17.013Z,29.48
2023-04-18T10:57:43.477Z,29.13
2023-04-18T11:00:09.846Z,29.39
2023-04-18T11:02:36.350Z,29.43
2023-04-18T11:05:02.789Z,29.40
2023-04-18T11:07:30.087Z,29.27
2023-04-18T11:09:56.473Z,29.19
2023-04-18T11:12:22.861Z,29.52
2023-04-18T11:14:51.249Z,29.64
2023-04-18T11:17:17.624Z,29.49
2023-04-18T11:19:44.101Z,28.99
2023-04-18T11:22:10.512Z,29.14
2023-04-18T11:24:36.915Z,29.25
2023-04-18T11:27:03.291Z,29.54
2023-04-18T11:29:29.707Z,29.10
2023-04-18T11:31:58.279Z,29.02
2023-04-18T11:34:25.170Z,29.53
2023-04-18T11:36:51.574Z,29.87
2023-04-18T11:39:17.929Z,30.33
2023-04-18T11:41:44.292Z,29.74
2023-04-18T11:44:10.698Z,29.49
2023-04-18T11:46:37.120Z,29.29
2023-04-18T11:49:03.644Z,29.15
2023-04-18T11:51:30.083Z,29.13
2023-04-18T11:53:56.396Z,29.37
2023-04-18T11:56:22.735Z,28.20
2023-04-18T11:58:49.146Z,28.42
2023-04-18T12:01:15.629Z,28.66
2023-04-18T12:03:42.212Z,28.65
2023-04-18T12:06:08.743Z,28.62
2023-04-18T12:08:35.108Z,28.25
2023-04-18T12:11:01.549Z,27.95
2023-04-18T12:13:28.004Z,27.86
2023-04-18T12:15:54.381Z,27.66
2023-04-18T12:18:20.797Z,27.60
2023-04-18T12:20:47.234Z,27.32
2023-04-18T12:23:13.618Z,27.43
2023-04-18T12:25:40.055Z,27.57
2023-04-18T12:28:06.431Z,27.87
2023-04-18T12:30:33.390Z,27.90
2023-04-18T12:33:01.174Z,28.05
2023-04-18T12:35:27.579Z,27.87
2023-04-18T12:37:53.939Z,27.91
2023-04-18T12:40:20.364Z,27.89
2023-04-18T12:42:46.735Z,28.18
2023-04-18T12:45:13.080Z,27.82
2023-04-18T12:47:39.494Z,27.92
2023-04-18T12:50:05.987Z,28.06
2023-04-18T12:52:32.400Z,28.27
2023-04-18T12:54:58.743Z,28.00
2023-04-18T12:57:25.164Z,27.64
2023-04-18T12:59:51.598Z,27.66
2023-04-18T13:02:18.026Z,27.57
2023-04-18T13:04:44.512Z,27.47
2023-04-18T13:07:11.036Z,27.43
2023-04-18T13:09:37.414Z,27.19
2023-04-18T13:12:03.822Z,27.24
2023-04-18T13:14:30.271Z,27.31
2023-04-18T13:16:56.741Z,27.28
2023-04-18T13:19:23.147Z,27.31
2023-04-18T13:21:49.721Z,27.08
2023-04-18T13:24:16.118Z,25.62
2023-04-18T13:26:42.513Z,26.29
2023-04-18T13:29:08.862Z,26.99
2023-04-18T13:31:35.324Z,27.25
2023-04-18T13:34:01.742Z,27.29
2023-04-18T13:36:28.118Z,27.42
2023-04-18T13:38:55.041Z,27.07
2023-04-18T13:41:21.445Z,27.17
2023-04-18T13:43:47.808Z,26.99
2023-04-18T13:46:14.348Z,26.81
2023-04-18T13:48:40.750Z,26.75
2023-04-18T13:51:07.196Z,26.64
2023-04-18T13:53:33.653Z,26.47
2023-04-18T13:56:00.092Z,26.66
2023-04-18T13:58:26.453Z,26.58
2023-04-18T14:00:52.837Z,26.46
2023-04-18T14:03:19.536Z,26.13
2023-04-18T14:05:46.044Z,26.16
2023-04-18T14:08:12.495Z,26.16
2023-04-18T14:10:38.913Z,26.21
2023-04-18T14:13:05.254Z,25.93
2023-04-18T14:15:31.633Z,25.89
2023-04-18T14:17:58.170Z,25.86
2023-04-18T14:20:24.604Z,25.95
2023-04-18T14:22:53.018Z,25.72
2023-04-18T14:25:19.716Z,25.77
2023-04-18T14:27:46.134Z,25.68
2023-04-18T14:30:12.503Z,25.98
2023-04-18T14:32:38.951Z,25.91
2023-04-18T14:35:05.321Z,25.86
2023-04-18T14:37:33.169Z,25.92
2023-04-18T14:39:59.687Z,25.82
2023-04-18T14:42:26.105Z,25.75
2023-04-18T14:44:52.499Z,25.89
2023-04-18T14:47:18.922Z,25.68
2023-04-18T14:49:45.281Z,25.58
2023-04-18T14:52:11.714Z,25.73
2023-04-18T14:54:38.123Z,25.76
2023-04-18T14:57:04.559Z,25.60
2023-04-18T14:59:30.937Z,25.64
2023-04-18T15:01:57.433Z,25.77
2023-04-18T15:04:23.967Z,25.58
2023-04-18T15:06:50.509Z,25.59
2023-04-18T15:09:16.952Z,25.72
2023-04-18T15:11:43.317Z,25.65
2023-04-18T15:14:09.648Z,25.72
2023-04-18T15:16:36.072Z,25.70
2023-04-18T15:19:02.475Z,25.58
2023-04-18T15:21:28.852Z,25.44
2023-04-18T15:23:55.319Z,25.63
2023-04-18T15:26:21.772Z,25.61
2023-04-18T15:28:48.108Z,25.28
2023-04-18T15:31:14.486Z,25.34
2023-04-18T15:33:40.841Z,25.32
2023-04-18T15:36:07.182Z,25.25
2023-04-18T15:38:33.560Z,25.36
2023-04-18T15:40:59.925Z,25.32
2023-04-18T15:43:26.308Z,25.28
2023-04-18T15:45:52.838Z,25.05
2023-04-18T15:48:19.236Z,25.33
2023-04-18T15:50:45.687Z,25.13
2023-04-18T15:53:12.137Z,25.24
2023-04-18T15:55:38.618Z,25.11
2023-04-18T15:58:05.112Z,25.09
2023-04-18T16:00:31.565Z,25.20
2023-04-18T16:02:58.037Z,25.01
2023-04-18T16:05:24.489Z,25.20
2023-04-18T16:07:50.867Z,24.95
2023-04-18T16:10:17.331Z,25.00
2023-04-18T16:12:43.739Z,25.02
2023-04-18T16:15:10.124Z,25.02
2023-04-18T16:17:36.461Z,25.25
2023-04-18T16:20:02.922Z,25.02
2023-04-18T16:22:29.316Z,25.21
2023-04-18T16:24:55.776Z,24.99
2023-04-18T16:27:22.172Z,25.05
2023-04-18T16:29:48.559Z,25.15
2023-04-18T16:32:14.891Z,25.10
2023-04-18T16:34:41.245Z,25.34
2023-04-18T16:37:07.613Z,25.34
2023-04-18T16:39:33.919Z,25.20
2023-04-18T16:42:00.274Z,25.28
2023-04-18T16:44:26.640Z,25.36
2023-04-18T16:46:52.981Z,25.38
2023-04-18T16:49:19.507Z,25.51
2023-04-18T16:51:45.913Z,25.51
2023-04-18T16:54:12.448Z,25.25
2023-04-18T16:56:39.099Z,25.50
2023-04-18T16:59:05.469Z,25.37
2023-04-18T17:01:31.843Z,25.40
2023-04-18T17:03:58.421Z,25.46
2023-04-18T17:06:25.049Z,25.59
2023-04-18T17:08:51.518Z,25.83
2023-04-18T17:11:17.905Z,25.73
2023-04-18T17:13:44.254Z,25.90
2023-04-18T17:16:10.624Z,25.85
2023-04-18T17:18:36.933Z,25.99
2023-04-18T17:21:03.318Z,25.79
2023-04-18T17:23:30.958Z,26.17
2023-04-18T17:25:59.094Z,25.96
2023-04-18T17:28:25.461Z,26.22
2023-04-18T17:30:51.805Z,26.05
2023-04-18T17:33:18.151Z,26.17
2023-04-18T17:35:44.522Z,26.12
2023-04-18T17:38:10.833Z,26.44
2023-04-18T17:40:37.225Z,26.20
2023-04-18T17:43:03.593Z,26.45
2023-04-18T17:45:29.932Z,26.46
2023-04-18T17:47:56.283Z,26.48
2023-04-18T17:50:22.707Z,26.58
2023-04-18T17:52:49.037Z,26.63
2023-04-18T17:55:15.382Z,26.79
2023-04-18T17:57:41.748Z,27.04
2023-04-18T18:00:08.073Z,26.83
2023-04-18T18:02:38.777Z,26.84
2023-04-18T18:05:05.344Z,26.98
2023-04-18T18:07:31.728Z,27.29
2023-04-18T18:09:58.549Z,27.25
2023-04-18T18:12:24.937Z,27.32
2023-04-18T18:14:51.250Z,27.31
2023-04-18T18:17:17.564Z,27.28
2023-04-18T18:19:43.925Z,27.52
2023-04-18T18:22:10.264Z,27.61
2023-04-18T18:24:36.593Z,27.71
2023-04-18T18:27:02.967Z,27.76
2023-04-18T18:29:29.276Z,27.72
2023-04-18T18:31:55.588Z,27.94
2023-04-18T18:34:21.968Z,28.05
2023-04-18T18:36:48.361Z,28.04
2023-04-18T18:39:14.965Z,28.33
2023-04-18T18:41:41.474Z,28.46
2023-04-18T18:44:07.796Z,28.47
2023-04-18T18:46:34.174Z,28.54
2023-04-18T18:49:00.612Z,28.83
2023-04-18T18:51:26.959Z,28.83
2023-04-18T18:53:53.344Z,29.21
2023-04-18T18:56:19.889Z,29.33
2023-04-18T18:58:46.231Z,29.42
2023-04-18T19:01:12.548Z,29.62
2023-04-18T19:03:39.099Z,29.75
2023-04-18T19:06:05.575Z,29.62
2023-04-18T19:08:31.949Z,29.92
2023-04-18T19:10:58.315Z,30.09
2023-04-18T19:13:24.641Z,30.52
2023-04-18T19:15:51.002Z,30.65
2023-04-18T19:18:17.486Z,30.68
2023-04-18T19:20:43.881Z,30.98
2023-04-18T19:23:10.205Z,31.06
2023-04-18T19:25:36.581Z,31.17
2023-04-18T19:28:02.921Z,31.21
2023-04-18T19:30:29.300Z,31.42
2023-04-18T19:32:55.721Z,31.55
2023-04-18T19:35:22.090Z,31.67
2023-04-18T19:37:48.486Z,31.81
2023-04-18T19:40:14.858Z,32.18
2023-04-18T19:42:41.184Z,32.19
2023-04-18T19:45:07.545Z,32.33
2023-04-18T19:47:34.034Z,32.40
2023-04-18T19:50:00.432Z,32.41
2023-04-18T19:52:26.779Z,32.70
2023-04-18T19:54:53.134Z,32.80
2023-04-18T19:57:19.489Z,32.72
2023-04-18T19:59:45.859Z,33.10
2023-04-18T20:02:12.277Z,33.10
2023-04-18T20:04:38.764Z,33.17
2023-04-18T20:07:05.297Z,33.37
2023-04-18T20:09:31.668Z,33.40
2023-04-18T20:11:57.998Z,33.46
2023-04-18T20:14:24.323Z,33.49
2023-04-18T20:16:50.783Z,33.67
2023-04-18T20:19:17.448Z,33.70
2023-04-18T20:21:44.040Z,33.72
2023-04-18T20:24:10.402Z,33.84
2023-04-18T20:26:36.732Z,34.12
2023-04-18T20:29:03.097Z,34.11
2023-04-18T20:31:29.481Z,34.17
2023-04-18T20:33:55.798Z,34.12
2023-04-18T20:36:22.125Z,34.22
2023-04-18T20:38:48.484Z,34.27
2023-04-18T20:41:14.873Z,34.45
2023-04-18T20:43:41.221Z,34.32
2023-04-18T20:46:07.594Z,34.49
2023-04-18T20:48:33.990Z,34.47
2023-04-18T20:51:00.406Z,34.73
2023-04-18T20:53:26.816Z,34.74
2023-04-18T20:55:53.138Z,34.81
2023-04-18T20:58:19.469Z,34.63
2023-04-18T21:00:45.934Z,34.77
2023-04-18T21:03:12.401Z,34.97
2023-04-18T21:05:38.826Z,34.96
2023-04-18T21:08:05.224Z,34.86
2023-04-18T21:10:31.575Z,34.94
2023-04-18T21:12:57.934Z,35.18
2023-04-18T21:15:24.417Z,35.18
2023-04-18T21:17:50.823Z,35.39
2023-04-18T21:20:17.219Z,35.18
2023-04-18T21:22:43.578Z,35.41
2023-04-18T21:25:09.929Z,35.42
2023-04-18T21:27:36.269Z,35.51
2023-04-18T21:30:04.680Z,35.74
2023-04-18T21:32:31.346Z,35.80
2023-04-18T21:34:57.654Z,35.84
2023-04-18T21:37:24.015Z,35.70
2023-04-18T21:39:50.344Z,36.05
2023-04-18T21:42:16.871Z,35.87
2023-04-18T21:44:43.267Z,35.94
2023-04-18T21:47:09.581Z,35.83
2023-04-18T21:49:35.897Z,35.97
2023-04-18T21:52:02.279Z,36.09
2023-04-18T21:54:28.601Z,36.14
2023-04-18T21:56:55.065Z,36.24
2023-04-18T21:59:21.477Z,36.31
2023-04-18T22:01:47.801Z,36.13
2023-04-18T22:04:14.422Z,36.29
2023-04-18T22:06:41.322Z,36.39
2023-04-18T22:09:07.653Z,36.36
2023-04-18T22:11:33.976Z,36.46
2023-04-18T22:14:00.328Z,36.32
2023-04-18T22:16:26.694Z,36.33
2023-04-18T22:18:53.173Z,36.45
2023-04-18T22:21:19.633Z,36.52
2023-04-18T22:23:45.958Z,36.52
2023-04-18T22:26:12.320Z,36.55
2023-04-18T22:28:38.692Z,36.38
2023-04-18T22:31:05.311Z,36.57
2023-04-18T22:33:31.736Z,36.30
2023-04-18T22:35:58.154Z,36.40
2023-04-18T22:38:24.533Z,36.41
2023-04-18T22:40:50.902Z,36.75
2023-04-18T22:43:17.299Z,36.48
2023-04-18T22:45:43.669Z,36.78
2023-04-18T22:48:10.063Z,36.49
2023-04-18T22:50:36.472Z,36.79
2023-04-18T22:53:02.795Z,36.76
2023-04-18T22:55:29.092Z,36.63
2023-04-18T22:57:55.457Z,36.83
2023-04-18T23:00:21.781Z,36.81
2023-04-18T23:02:48.342Z,37.01
2023-04-18T23:05:14.861Z,36.87
2023-04-18T23:07:41.169Z,36.82
2023-04-18T23:10:07.525Z,37.04
2023-04-18T23:12:34.020Z,37.15
2023-04-18T23:15:00.381Z,36.95
2023-04-18T23:17:26.772Z,37.07
2023-04-18T23:19:53.168Z,36.87
2023-04-18T23:22:19.665Z,36.97
2023-04-18T23:24:46.110Z,37.23
2023-04-18T23:27:12.590Z,37.35
2023-04-18T23:29:38.934Z,37.08
2023-04-18T23:32:05.383Z,37.33
2023-04-18T23:34:31.816Z,37.38
2023-04-18T23:36:58.147Z,37.47
2023-04-18T23:39:24.467Z,37.58
2023-04-18T23:41:50.819Z,37.57
2023-04-18T23:44:17.135Z,37.62
2023-04-18T23:46:43.513Z,37.98
2023-04-18T23:49:09.891Z,37.87
2023-04-18T23:51:36.226Z,37.91
2023-04-18T23:54:02.579Z,37.90
2023-04-18T23:56:28.967Z,38.11
2023-04-18T23:58:55.282Z,38.33
